Alexander City, Alabama
Current Conditions -  °F | °C
As of 12:15 AM on Wednesday 26 Nov 2014 (Local Time) from KALX Reporting Station
Clear Clear  
Wind Chill: 10°   Ceiling: Unl
Heat Index: 10°   Visibility: 10mi
Dew Point: -2°   Wind: 8mph
Humidity: 44%   Direction: 320°NW
Pressure: 30.04"   Gusts: NA
Location:  32.94°N, 85.95°W
Report Text: KALX 260615Z AUTO 32007KT 10SM CLR 10/M02 A3004 RMK AO2 T01021017
Loading
Personal Weather Stations






























Interactive Weather Map New forecast layout! Learn more

10-Day Weather Forecast

Advertisements
Track Severe Weather on mobile